sensor_id;sensor_type;location;lat;lon;timestamp;temperature;humidity
62581;DHT22;48640;48.770;9.148;2022-08-19T00:02:23;21.80;73.80
62581;DHT22;48640;48.770;9.148;2022-08-19T00:04:50;21.70;73.90
62581;DHT22;48640;48.770;9.148;2022-08-19T00:07:19;21.70;74.30
62581;DHT22;48640;48.770;9.148;2022-08-19T00:09:46;21.70;74.10
62581;DHT22;48640;48.770;9.148;2022-08-19T00:12:13;21.80;73.90
62581;DHT22;48640;48.770;9.148;2022-08-19T00:14:41;21.80;73.90
62581;DHT22;48640;48.770;9.148;2022-08-19T00:17:09;21.80;73.70
62581;DHT22;48640;48.770;9.148;2022-08-19T00:19:36;21.80;73.80
62581;DHT22;48640;48.770;9.148;2022-08-19T00:22:04;21.80;73.60
62581;DHT22;48640;48.770;9.148;2022-08-19T00:24:32;21.70;73.80
62581;DHT22;48640;48.770;9.148;2022-08-19T00:27:00;21.70;73.90
62581;DHT22;48640;48.770;9.148;2022-08-19T00:29:27;21.70;74.20
62581;DHT22;48640;48.770;9.148;2022-08-19T00:31:54;21.60;74.20
62581;DHT22;48640;48.770;9.148;2022-08-19T00:34:24;21.70;74.20
62581;DHT22;48640;48.770;9.148;2022-08-19T00:36:53;21.60;74.30
62581;DHT22;48640;48.770;9.148;2022-08-19T00:39:20;21.60;74.50
62581;DHT22;48640;48.770;9.148;2022-08-19T00:41:49;21.60;74.70
62581;DHT22;48640;48.770;9.148;2022-08-19T00:44:18;21.60;74.70
62581;DHT22;48640;48.770;9.148;2022-08-19T00:46:46;21.60;74.50
62581;DHT22;48640;48.770;9.148;2022-08-19T00:49:16;21.60;74.60
62581;DHT22;48640;48.770;9.148;2022-08-19T00:51:48;21.60;74.60
62581;DHT22;48640;48.770;9.148;2022-08-19T00:54:16;21.70;74.70
62581;DHT22;48640;48.770;9.148;2022-08-19T00:56:44;21.60;74.80
62581;DHT22;48640;48.770;9.148;2022-08-19T00:59:14;21.60;74.80
62581;DHT22;48640;48.770;9.148;2022-08-19T01:01:43;21.60;75.00
62581;DHT22;48640;48.770;9.148;2022-08-19T01:04:10;21.60;75.00
62581;DHT22;48640;48.770;9.148;2022-08-19T01:06:38;21.60;74.90
62581;DHT22;48640;48.770;9.148;2022-08-19T01:09:06;21.50;75.20
62581;DHT22;48640;48.770;9.148;2022-08-19T01:11:36;21.60;75.60
62581;DHT22;48640;48.770;9.148;2022-08-19T01:14:05;21.60;75.30
62581;DHT22;48640;48.770;9.148;2022-08-19T01:16:34;21.60;75.20
62581;DHT22;48640;48.770;9.148;2022-08-19T01:19:05;21.60;75.20
62581;DHT22;48640;48.770;9.148;2022-08-19T01:21:41;21.60;75.20
62581;DHT22;48640;48.770;9.148;2022-08-19T01:24:12;21.50;75.60
62581;DHT22;48640;48.770;9.148;2022-08-19T01:26:40;21.50;75.80
62581;DHT22;48640;48.770;9.148;2022-08-19T01:29:08;21.60;75.70
62581;DHT22;48640;48.770;9.148;2022-08-19T01:31:36;21.60;76.40
62581;DHT22;48640;48.770;9.148;2022-08-19T01:34:05;21.60;75.70
62581;DHT22;48640;48.770;9.148;2022-08-19T01:36:34;21.60;75.70
62581;DHT22;48640;48.770;9.148;2022-08-19T01:39:06;21.50;75.70
62581;DHT22;48640;48.770;9.148;2022-08-19T01:41:35;21.50;75.80
62581;DHT22;48640;48.770;9.148;2022-08-19T01:44:02;21.50;76.00
62581;DHT22;48640;48.770;9.148;2022-08-19T01:46:30;21.40;76.50
62581;DHT22;48640;48.770;9.148;2022-08-19T01:48:57;21.50;76.40
62581;DHT22;48640;48.770;9.148;2022-08-19T01:51:24;21.50;76.60
62581;DHT22;48640;48.770;9.148;2022-08-19T01:53:51;21.50;76.80
62581;DHT22;48640;48.770;9.148;2022-08-19T01:56:19;21.50;76.50
62581;DHT22;48640;48.770;9.148;2022-08-19T01:58:51;21.50;76.60
62581;DHT22;48640;48.770;9.148;2022-08-19T02:01:19;21.50;76.80
62581;DHT22;48640;48.770;9.148;2022-08-19T02:03:46;21.50;76.80
62581;DHT22;48640;48.770;9.148;2022-08-19T02:06:13;21.40;76.90
62581;DHT22;48640;48.770;9.148;2022-08-19T02:08:43;21.50;77.10
62581;DHT22;48640;48.770;9.148;2022-08-19T02:11:19;21.50;77.00
62581;DHT22;48640;48.770;9.148;2022-08-19T02:13:48;21.40;77.50
62581;DHT22;48640;48.770;9.148;2022-08-19T02:16:17;21.30;77.70
62581;DHT22;48640;48.770;9.148;2022-08-19T02:18:44;21.30;78.20
62581;DHT22;48640;48.770;9.148;2022-08-19T02:21:12;21.20;78.40
62581;DHT22;48640;48.770;9.148;2022-08-19T02:23:40;21.30;78.50
62581;DHT22;48640;48.770;9.148;2022-08-19T02:26:07;21.30;78.50
62581;DHT22;48640;48.770;9.148;2022-08-19T02:28:34;21.20;79.50
62581;DHT22;48640;48.770;9.148;2022-08-19T02:31:08;21.30;78.80
62581;DHT22;48640;48.770;9.148;2022-08-19T02:33:35;21.30;78.90
62581;DHT22;48640;48.770;9.148;2022-08-19T02:36:03;21.20;79.00
62581;DHT22;48640;48.770;9.148;2022-08-19T02:38:30;21.20;79.40
62581;DHT22;48640;48.770;9.148;2022-08-19T02:40:59;21.10;79.60
62581;DHT22;48640;48.770;9.148;2022-08-19T02:43:29;21.10;79.80
62581;DHT22;48640;48.770;9.148;2022-08-19T02:45:56;21.10;80.30
62581;DHT22;48640;48.770;9.148;2022-08-19T02:48:25;21.00;80.80
62581;DHT22;48640;48.770;9.148;2022-08-19T02:50:53;21.00;80.80
62581;DHT22;48640;48.770;9.148;2022-08-19T02:53:21;21.00;80.90
62581;DHT22;48640;48.770;9.148;2022-08-19T02:55:49;21.00;82.00
62581;DHT22;48640;48.770;9.148;2022-08-19T02:58:16;21.00;81.20
62581;DHT22;48640;48.770;9.148;2022-08-19T03:00:44;21.00;81.20
62581;DHT22;48640;48.770;9.148;2022-08-19T03:03:12;21.00;81.60
62581;DHT22;48640;48.770;9.148;2022-08-19T03:05:41;20.90;81.60
62581;DHT22;48640;48.770;9.148;2022-08-19T03:08:08;20.90;82.00
62581;DHT22;48640;48.770;9.148;2022-08-19T03:10:41;20.80;82.20
62581;DHT22;48640;48.770;9.148;2022-08-19T03:13:09;20.80;82.90
62581;DHT22;48640;48.770;9.148;2022-08-19T03:15:40;20.80;83.10
62581;DHT22;48640;48.770;9.148;2022-08-19T03:18:07;20.70;83.40
62581;DHT22;48640;48.770;9.148;2022-08-19T03:20:34;20.80;83.80
62581;DHT22;48640;48.770;9.148;2022-08-19T03:23:02;20.80;83.90
62581;DHT22;48640;48.770;9.148;2022-08-19T03:25:29;20.80;83.80
62581;DHT22;48640;48.770;9.148;2022-08-19T03:27:55;20.80;83.80
62581;DHT22;48640;48.770;9.148;2022-08-19T03:30:22;20.80;84.20
62581;DHT22;48640;48.770;9.148;2022-08-19T03:32:49;20.70;84.40
62581;DHT22;48640;48.770;9.148;2022-08-19T03:35:16;20.80;84.60
62581;DHT22;48640;48.770;9.148;2022-08-19T03:37:43;20.70;84.70
62581;DHT22;48640;48.770;9.148;2022-08-19T03:40:11;20.60;85.70
62581;DHT22;48640;48.770;9.148;2022-08-19T03:42:38;20.50;85.70
62581;DHT22;48640;48.770;9.148;2022-08-19T03:45:08;20.50;86.00
62581;DHT22;48640;48.770;9.148;2022-08-19T03:47:35;20.60;86.10
62581;DHT22;48640;48.770;9.148;2022-08-19T03:50:03;20.60;85.90
62581;DHT22;48640;48.770;9.148;2022-08-19T03:52:30;20.60;86.10
62581;DHT22;48640;48.770;9.148;2022-08-19T03:54:57;20.50;85.90
62581;DHT22;48640;48.770;9.148;2022-08-19T03:57:25;20.50;86.80
62581;DHT22;48640;48.770;9.148;2022-08-19T03:59:52;20.40;86.50
62581;DHT22;48640;48.770;9.148;2022-08-19T04:02:19;20.50;86.40
62581;DHT22;48640;48.770;9.148;2022-08-19T04:04:46;20.50;86.40
62581;DHT22;48640;48.770;9.148;2022-08-19T04:07:14;20.60;85.90
62581;DHT22;48640;48.770;9.148;2022-08-19T04:09:42;20.60;85.70
62581;DHT22;48640;48.770;9.148;2022-08-19T04:12:08;20.50;86.30
62581;DHT22;48640;48.770;9.148;2022-08-19T04:14:37;20.40;86.60
62581;DHT22;48640;48.770;9.148;2022-08-19T04:17:04;20.40;86.40
62581;DHT22;48640;48.770;9.148;2022-08-19T04:19:32;20.40;86.60
62581;DHT22;48640;48.770;9.148;2022-08-19T04:21:59;20.40;87.40
62581;DHT22;48640;48.770;9.148;2022-08-19T04:24:26;20.40;86.80
62581;DHT22;48640;48.770;9.148;2022-08-19T04:26:53;20.40;86.90
62581;DHT22;48640;48.770;9.148;2022-08-19T04:29:22;20.30;87.20
62581;DHT22;48640;48.770;9.148;2022-08-19T04:31:53;20.40;87.30
62581;DHT22;48640;48.770;9.148;2022-08-19T04:34:20;20.40;87.10
62581;DHT22;48640;48.770;9.148;2022-08-19T04:36:48;20.40;87.10
62581;DHT22;48640;48.770;9.148;2022-08-19T04:39:17;20.40;87.00
62581;DHT22;48640;48.770;9.148;2022-08-19T04:41:46;20.40;87.20
62581;DHT22;48640;48.770;9.148;2022-08-19T04:44:31;20.40;87.60
62581;DHT22;48640;48.770;9.148;2022-08-19T04:46:59;20.40;87.30
62581;DHT22;48640;48.770;9.148;2022-08-19T04:49:26;20.30;87.60
62581;DHT22;48640;48.770;9.148;2022-08-19T04:51:54;20.30;87.70
62581;DHT22;48640;48.770;9.148;2022-08-19T04:54:23;20.40;87.90
62581;DHT22;48640;48.770;9.148;2022-08-19T04:56:51;20.40;88.00
62581;DHT22;48640;48.770;9.148;2022-08-19T04:59:19;20.30;88.00
62581;DHT22;48640;48.770;9.148;2022-08-19T05:01:46;20.50;88.20
62581;DHT22;48640;48.770;9.148;2022-08-19T05:04:18;20.40;88.30
62581;DHT22;48640;48.770;9.148;2022-08-19T05:06:46;20.40;88.00
62581;DHT22;48640;48.770;9.148;2022-08-19T05:09:13;20.50;87.60
62581;DHT22;48640;48.770;9.148;2022-08-19T05:11:41;20.40;87.60
62581;DHT22;48640;48.770;9.148;2022-08-19T05:14:09;20.50;87.70
62581;DHT22;48640;48.770;9.148;2022-08-19T05:16:38;20.50;87.90
62581;DHT22;48640;48.770;9.148;2022-08-19T05:19:05;20.50;87.60
62581;DHT22;48640;48.770;9.148;2022-08-19T05:21:50;20.60;87.40
62581;DHT22;48640;48.770;9.148;2022-08-19T05:24:36;20.50;87.60
62581;DHT22;48640;48.770;9.148;2022-08-19T05:27:03;20.50;88.40
62581;DHT22;48640;48.770;9.148;2022-08-19T05:29:32;20.50;87.90
62581;DHT22;48640;48.770;9.148;2022-08-19T05:32:00;20.60;87.70
62581;DHT22;48640;48.770;9.148;2022-08-19T05:34:28;20.60;87.10
62581;DHT22;48640;48.770;9.148;2022-08-19T05:36:58;20.70;86.90
62581;DHT22;48640;48.770;9.148;2022-08-19T05:39:28;20.70;86.90
62581;DHT22;48640;48.770;9.148;2022-08-19T05:41:57;20.80;86.70
62581;DHT22;48640;48.770;9.148;2022-08-19T05:44:25;20.80;86.40
62581;DHT22;48640;48.770;9.148;2022-08-19T05:46:52;20.80;86.00
62581;DHT22;48640;48.770;9.148;2022-08-19T05:49:21;20.80;86.00
62581;DHT22;48640;48.770;9.148;2022-08-19T05:51:49;20.70;86.00
62581;DHT22;48640;48.770;9.148;2022-08-19T05:54:17;20.70;86.00
62581;DHT22;48640;48.770;9.148;2022-08-19T05:56:44;20.70;86.60
62581;DHT22;48640;48.770;9.148;2022-08-19T05:59:15;20.60;86.50
62581;DHT22;48640;48.770;9.148;2022-08-19T06:01:44;20.70;86.60
62581;DHT22;48640;48.770;9.148;2022-08-19T06:04:11;20.70;86.50
62581;DHT22;48640;48.770;9.148;2022-08-19T06:06:41;20.70;85.90
62581;DHT22;48640;48.770;9.148;2022-08-19T06:09:08;20.60;86.40
62581;DHT22;48640;48.770;9.148;2022-08-19T06:11:41;20.70;86.60
62581;DHT22;48640;48.770;9.148;2022-08-19T06:14:11;20.70;86.60
62581;DHT22;48640;48.770;9.148;2022-08-19T06:16:39;20.70;86.80
62581;DHT22;48640;48.770;9.148;2022-08-19T06:19:08;20.70;86.90
62581;DHT22;48640;48.770;9.148;2022-08-19T06:21:37;20.70;86.60
62581;DHT22;48640;48.770;9.148;2022-08-19T06:24:04;20.80;86.70
62581;DHT22;48640;48.770;9.148;2022-08-19T06:26:34;20.80;86.50
62581;DHT22;48640;48.770;9.148;2022-08-19T06:29:03;20.80;86.30
62581;DHT22;48640;48.770;9.148;2022-08-19T06:31:33;20.80;86.20
62581;DHT22;48640;48.770;9.148;2022-08-19T06:34:01;20.80;86.20
62581;DHT22;48640;48.770;9.148;2022-08-19T06:36:32;20.70;86.60
62581;DHT22;48640;48.770;9.148;2022-08-19T06:39:00;20.70;87.10
62581;DHT22;48640;48.770;9.148;2022-08-19T06:41:27;20.70;87.40
62581;DHT22;48640;48.770;9.148;2022-08-19T06:43:55;20.80;87.40
62581;DHT22;48640;48.770;9.148;2022-08-19T06:46:23;20.80;87.70
62581;DHT22;48640;48.770;9.148;2022-08-19T06:48:50;20.70;87.70
62581;DHT22;48640;48.770;9.148;2022-08-19T06:51:19;20.70;87.90
62581;DHT22;48640;48.770;9.148;2022-08-19T06:53:46;20.80;88.30
62581;DHT22;48640;48.770;9.148;2022-08-19T06:56:14;20.80;88.20
62581;DHT22;48640;48.770;9.148;2022-08-19T06:58:41;20.80;89.80
62581;DHT22;48640;48.770;9.148;2022-08-19T07:01:08;20.80;90.10
62581;DHT22;48640;48.770;9.148;2022-08-19T07:03:38;20.80;90.00
62581;DHT22;48640;48.770;9.148;2022-08-19T07:06:05;20.70;90.20
62581;DHT22;48640;48.770;9.148;2022-08-19T07:08:33;20.60;90.50
62581;DHT22;48640;48.770;9.148;2022-08-19T07:11:02;20.60;91.10
62581;DHT22;48640;48.770;9.148;2022-08-19T07:13:29;20.60;91.10
62581;DHT22;48640;48.770;9.148;2022-08-19T07:16:03;20.60;90.90
62581;DHT22;48640;48.770;9.148;2022-08-19T07:18:30;20.70;91.10
62581;DHT22;48640;48.770;9.148;2022-08-19T07:21:04;20.70;91.10
62581;DHT22;48640;48.770;9.148;2022-08-19T07:23:31;20.70;91.50
62581;DHT22;48640;48.770;9.148;2022-08-19T07:25:58;20.60;91.60
62581;DHT22;48640;48.770;9.148;2022-08-19T07:28:24;20.60;91.60
62581;DHT22;48640;48.770;9.148;2022-08-19T07:30:51;20.60;91.00
62581;DHT22;48640;48.770;9.148;2022-08-19T07:33:18;20.60;91.30
62581;DHT22;48640;48.770;9.148;2022-08-19T07:35:45;20.60;91.00
62581;DHT22;48640;48.770;9.148;2022-08-19T07:38:13;20.70;90.90
62581;DHT22;48640;48.770;9.148;2022-08-19T07:40:41;20.70;90.60
62581;DHT22;48640;48.770;9.148;2022-08-19T07:43:09;20.70;90.60
62581;DHT22;48640;48.770;9.148;2022-08-19T07:45:35;20.60;90.50
62581;DHT22;48640;48.770;9.148;2022-08-19T07:48:03;20.60;90.70
62581;DHT22;48640;48.770;9.148;2022-08-19T07:50:30;20.50;90.70
62581;DHT22;48640;48.770;9.148;2022-08-19T07:52:57;20.50;91.10
62581;DHT22;48640;48.770;9.148;2022-08-19T07:55:26;20.50;91.00
62581;DHT22;48640;48.770;9.148;2022-08-19T07:57:52;20.50;90.90
62581;DHT22;48640;48.770;9.148;2022-08-19T08:00:19;20.60;90.90
62581;DHT22;48640;48.770;9.148;2022-08-19T08:02:46;20.60;90.60
62581;DHT22;48640;48.770;9.148;2022-08-19T08:05:13;20.70;90.40
62581;DHT22;48640;48.770;9.148;2022-08-19T08:07:57;20.70;90.50
62581;DHT22;48640;48.770;9.148;2022-08-19T08:10:43;20.70;90.30
62581;DHT22;48640;48.770;9.148;2022-08-19T08:13:09;20.70;90.00
62581;DHT22;48640;48.770;9.148;2022-08-19T08:15:37;20.60;90.20
62581;DHT22;48640;48.770;9.148;2022-08-19T08:18:04;20.70;90.10
62581;DHT22;48640;48.770;9.148;2022-08-19T08:20:32;20.70;89.80
62581;DHT22;48640;48.770;9.148;2022-08-19T08:22:58;20.60;90.00
62581;DHT22;48640;48.770;9.148;2022-08-19T08:25:44;20.60;90.20
62581;DHT22;48640;48.770;9.148;2022-08-19T08:28:11;20.60;90.30
62581;DHT22;48640;48.770;9.148;2022-08-19T08:30:38;20.60;90.20
62581;DHT22;48640;48.770;9.148;2022-08-19T08:33:07;20.70;89.90
62581;DHT22;48640;48.770;9.148;2022-08-19T08:35:34;20.80;89.60
62581;DHT22;48640;48.770;9.148;2022-08-19T08:38:02;20.80;89.60
62581;DHT22;48640;48.770;9.148;2022-08-19T08:40:38;20.90;88.80
62581;DHT22;48640;48.770;9.148;2022-08-19T08:43:13;20.80;89.30
62581;DHT22;48640;48.770;9.148;2022-08-19T08:45:46;20.90;90.60
62581;DHT22;48640;48.770;9.148;2022-08-19T08:48:19;20.90;90.30
62581;DHT22;48640;48.770;9.148;2022-08-19T08:50:47;20.90;90.00
62581;DHT22;48640;48.770;9.148;2022-08-19T08:53:17;20.90;89.90
62581;DHT22;48640;48.770;9.148;2022-08-19T08:55:45;21.00;90.20
62581;DHT22;48640;48.770;9.148;2022-08-19T08:58:18;20.90;91.00
62581;DHT22;48640;48.770;9.148;2022-08-19T09:00:48;21.00;91.30
62581;DHT22;48640;48.770;9.148;2022-08-19T09:03:18;21.10;90.90
62581;DHT22;48640;48.770;9.148;2022-08-19T09:05:53;21.10;90.30
62581;DHT22;48640;48.770;9.148;2022-08-19T09:08:34;21.00;90.40
62581;DHT22;48640;48.770;9.148;2022-08-19T09:11:08;21.00;91.50
62581;DHT22;48640;48.770;9.148;2022-08-19T09:13:42;20.90;90.70
62581;DHT22;48640;48.770;9.148;2022-08-19T09:16:15;21.00;90.90
62581;DHT22;48640;48.770;9.148;2022-08-19T09:18:45;21.10;90.30
62581;DHT22;48640;48.770;9.148;2022-08-19T09:21:13;21.10;90.50
62581;DHT22;48640;48.770;9.148;2022-08-19T09:23:40;21.20;90.00
62581;DHT22;48640;48.770;9.148;2022-08-19T09:26:09;21.10;90.20
62581;DHT22;48640;48.770;9.148;2022-08-19T09:28:40;21.30;89.60
62581;DHT22;48640;48.770;9.148;2022-08-19T09:31:09;21.40;88.90
62581;DHT22;48640;48.770;9.148;2022-08-19T09:33:36;21.50;88.60
62581;DHT22;48640;48.770;9.148;2022-08-19T09:36:05;21.60;87.70
62581;DHT22;48640;48.770;9.148;2022-08-19T09:38:32;21.70;87.10
62581;DHT22;48640;48.770;9.148;2022-08-19T09:41:03;21.80;87.00
62581;DHT22;48640;48.770;9.148;2022-08-19T09:43:31;21.90;85.70
62581;DHT22;48640;48.770;9.148;2022-08-19T09:46:00;21.90;85.50
62581;DHT22;48640;48.770;9.148;2022-08-19T09:48:27;21.90;86.40
62581;DHT22;48640;48.770;9.148;2022-08-19T09:50:54;22.00;85.90
62581;DHT22;48640;48.770;9.148;2022-08-19T09:53:21;22.00;85.40
62581;DHT22;48640;48.770;9.148;2022-08-19T09:55:48;22.00;85.90
62581;DHT22;48640;48.770;9.148;2022-08-19T09:58:15;22.10;84.90
62581;DHT22;48640;48.770;9.148;2022-08-19T10:00:42;22.10;84.70
62581;DHT22;48640;48.770;9.148;2022-08-19T10:03:12;22.10;84.80
62581;DHT22;48640;48.770;9.148;2022-08-19T10:05:39;22.10;84.30
62581;DHT22;48640;48.770;9.148;2022-08-19T10:08:16;22.10;84.40
62581;DHT22;48640;48.770;9.148;2022-08-19T10:10:44;22.10;84.60
62581;DHT22;48640;48.770;9.148;2022-08-19T10:13:11;22.10;84.50
62581;DHT22;48640;48.770;9.148;2022-08-19T10:15:39;22.10;84.50
62581;DHT22;48640;48.770;9.148;2022-08-19T10:18:06;22.10;84.30
62581;DHT22;48640;48.770;9.148;2022-08-19T10:20:35;22.10;83.90
62581;DHT22;48640;48.770;9.148;2022-08-19T10:23:02;22.20;84.20
62581;DHT22;48640;48.770;9.148;2022-08-19T10:25:29;22.20;83.80
62581;DHT22;48640;48.770;9.148;2022-08-19T10:27:59;22.20;83.10
62581;DHT22;48640;48.770;9.148;2022-08-19T10:30:25;22.30;82.90
62581;DHT22;48640;48.770;9.148;2022-08-19T10:32:53;22.30;83.10
62581;DHT22;48640;48.770;9.148;2022-08-19T10:35:20;22.30;82.90
62581;DHT22;48640;48.770;9.148;2022-08-19T10:37:48;22.30;82.00
62581;DHT22;48640;48.770;9.148;2022-08-19T10:40:15;22.30;82.30
62581;DHT22;48640;48.770;9.148;2022-08-19T10:42:42;22.40;82.20
62581;DHT22;48640;48.770;9.148;2022-08-19T10:45:09;22.40;82.00
62581;DHT22;48640;48.770;9.148;2022-08-19T10:47:36;22.40;81.90
62581;DHT22;48640;48.770;9.148;2022-08-19T10:50:04;22.50;81.40
62581;DHT22;48640;48.770;9.148;2022-08-19T10:52:50;22.60;80.70
62581;DHT22;48640;48.770;9.148;2022-08-19T10:55:19;22.70;80.00
62581;DHT22;48640;48.770;9.148;2022-08-19T10:58:03;22.90;78.80
62581;DHT22;48640;48.770;9.148;2022-08-19T11:00:30;22.90;77.60
62581;DHT22;48640;48.770;9.148;2022-08-19T11:02:58;22.90;77.20
62581;DHT22;48640;48.770;9.148;2022-08-19T11:05:24;22.80;77.70
62581;DHT22;48640;48.770;9.148;2022-08-19T11:07:52;22.70;77.40
62581;DHT22;48640;48.770;9.148;2022-08-19T11:10:19;22.60;77.40
62581;DHT22;48640;48.770;9.148;2022-08-19T11:12:47;22.50;77.90
62581;DHT22;48640;48.770;9.148;2022-08-19T11:15:14;22.60;78.30
62581;DHT22;48640;48.770;9.148;2022-08-19T11:17:41;22.70;78.30
62581;DHT22;48640;48.770;9.148;2022-08-19T11:20:10;22.80;78.40
62581;DHT22;48640;48.770;9.148;2022-08-19T11:22:38;22.80;77.20
62581;DHT22;48640;48.770;9.148;2022-08-19T11:25:08;22.90;77.20
62581;DHT22;48640;48.770;9.148;2022-08-19T11:27:38;23.20;76.50
62581;DHT22;48640;48.770;9.148;2022-08-19T11:30:08;23.50;74.90
62581;DHT22;48640;48.770;9.148;2022-08-19T11:32:35;23.70;74.00
62581;DHT22;48640;48.770;9.148;2022-08-19T11:35:02;23.70;72.60
62581;DHT22;48640;48.770;9.148;2022-08-19T11:37:29;23.60;73.30
62581;DHT22;48640;48.770;9.148;2022-08-19T11:39:56;23.80;73.10
62581;DHT22;48640;48.770;9.148;2022-08-19T11:42:24;23.70;72.30
62581;DHT22;48640;48.770;9.148;2022-08-19T11:45:08;23.80;72.50
62581;DHT22;48640;48.770;9.148;2022-08-19T11:47:36;23.70;72.00
62581;DHT22;48640;48.770;9.148;2022-08-19T11:50:04;23.70;72.20
62581;DHT22;48640;48.770;9.148;2022-08-19T11:52:31;23.80;72.10
62581;DHT22;48640;48.770;9.148;2022-08-19T11:54:58;23.70;71.80
62581;DHT22;48640;48.770;9.148;2022-08-19T11:57:26;23.80;72.00
62581;DHT22;48640;48.770;9.148;2022-08-19T11:59:53;23.60;70.60
62581;DHT22;48640;48.770;9.148;2022-08-19T12:02:20;23.70;70.60
62581;DHT22;48640;48.770;9.148;2022-08-19T12:04:47;23.80;70.30
62581;DHT22;48640;48.770;9.148;2022-08-19T12:07:14;23.90;69.30
62581;DHT22;48640;48.770;9.148;2022-08-19T12:09:41;24.00;68.90
62581;DHT22;48640;48.770;9.148;2022-08-19T12:12:08;23.90;68.30
62581;DHT22;48640;48.770;9.148;2022-08-19T12:14:36;23.90;68.80
62581;DHT22;48640;48.770;9.148;2022-08-19T12:17:04;23.80;69.20
62581;DHT22;48640;48.770;9.148;2022-08-19T12:19:32;23.80;68.80
62581;DHT22;48640;48.770;9.148;2022-08-19T12:22:00;23.80;69.40
62581;DHT22;48640;48.770;9.148;2022-08-19T12:24:30;23.80;69.00
62581;DHT22;48640;48.770;9.148;2022-08-19T12:26:58;23.90;68.90
62581;DHT22;48640;48.770;9.148;2022-08-19T12:29:27;23.90;68.80
62581;DHT22;48640;48.770;9.148;2022-08-19T12:31:57;23.80;69.00
62581;DHT22;48640;48.770;9.148;2022-08-19T12:34:26;23.70;68.60
62581;DHT22;48640;48.770;9.148;2022-08-19T12:36:55;23.60;69.60
62581;DHT22;48640;48.770;9.148;2022-08-19T12:39:22;23.40;69.30
62581;DHT22;48640;48.770;9.148;2022-08-19T12:41:49;23.30;69.80
62581;DHT22;48640;48.770;9.148;2022-08-19T12:44:16;23.10;72.80
62581;DHT22;48640;48.770;9.148;2022-08-19T12:46:43;23.10;73.40
62581;DHT22;48640;48.770;9.148;2022-08-19T12:49:11;23.10;74.70
62581;DHT22;48640;48.770;9.148;2022-08-19T12:51:38;23.10;75.50
62581;DHT22;48640;48.770;9.148;2022-08-19T12:54:05;23.20;74.90
62581;DHT22;48640;48.770;9.148;2022-08-19T12:56:32;23.30;74.20
62581;DHT22;48640;48.770;9.148;2022-08-19T12:59:01;23.40;71.50
62581;DHT22;48640;48.770;9.148;2022-08-19T13:01:28;23.50;71.60
62581;DHT22;48640;48.770;9.148;2022-08-19T13:03:55;23.50;72.70
62581;DHT22;48640;48.770;9.148;2022-08-19T13:06:23;23.70;72.40
62581;DHT22;48640;48.770;9.148;2022-08-19T13:08:50;23.90;71.70
62581;DHT22;48640;48.770;9.148;2022-08-19T13:11:19;23.90;71.70
62581;DHT22;48640;48.770;9.148;2022-08-19T13:13:50;23.80;72.10
62581;DHT22;48640;48.770;9.148;2022-08-19T13:16:18;23.60;73.10
62581;DHT22;48640;48.770;9.148;2022-08-19T13:18:46;23.40;75.20
62581;DHT22;48640;48.770;9.148;2022-08-19T13:21:14;23.30;76.40
62581;DHT22;48640;48.770;9.148;2022-08-19T13:23:43;23.20;78.20
62581;DHT22;48640;48.770;9.148;2022-08-19T13:26:11;22.90;80.30
62581;DHT22;48640;48.770;9.148;2022-08-19T13:28:39;22.90;82.20
62581;DHT22;48640;48.770;9.148;2022-08-19T13:31:25;22.90;83.70
62581;DHT22;48640;48.770;9.148;2022-08-19T13:34:09;23.00;85.50
62581;DHT22;48640;48.770;9.148;2022-08-19T13:36:37;22.90;86.50
62581;DHT22;48640;48.770;9.148;2022-08-19T13:39:06;22.90;88.40
62581;DHT22;48640;48.770;9.148;2022-08-19T13:41:34;22.80;89.90
62581;DHT22;48640;48.770;9.148;2022-08-19T13:44:02;22.70;90.50
62581;DHT22;48640;48.770;9.148;2022-08-19T13:46:29;22.70;91.10
62581;DHT22;48640;48.770;9.148;2022-08-19T13:48:56;22.60;91.40
62581;DHT22;48640;48.770;9.148;2022-08-19T13:51:23;22.50;91.50
62581;DHT22;48640;48.770;9.148;2022-08-19T13:53:50;22.50;92.10
62581;DHT22;48640;48.770;9.148;2022-08-19T13:56:19;22.30;92.80
62581;DHT22;48640;48.770;9.148;2022-08-19T13:58:46;22.30;92.70
62581;DHT22;48640;48.770;9.148;2022-08-19T14:01:17;22.10;93.50
62581;DHT22;48640;48.770;9.148;2022-08-19T14:03:45;21.90;94.60
62581;DHT22;48640;48.770;9.148;2022-08-19T14:06:11;21.70;95.80
62581;DHT22;48640;48.770;9.148;2022-08-19T14:08:38;21.50;97.40
62581;DHT22;48640;48.770;9.148;2022-08-19T14:11:07;21.40;98.20
62581;DHT22;48640;48.770;9.148;2022-08-19T14:13:35;21.50;98.00
62581;DHT22;48640;48.770;9.148;2022-08-19T14:16:07;21.60;98.00
62581;DHT22;48640;48.770;9.148;2022-08-19T14:18:34;21.60;97.30
62581;DHT22;48640;48.770;9.148;2022-08-19T14:21:01;21.60;97.40
62581;DHT22;48640;48.770;9.148;2022-08-19T14:23:28;21.80;96.50
62581;DHT22;48640;48.770;9.148;2022-08-19T14:26:03;21.90;95.80
62581;DHT22;48640;48.770;9.148;2022-08-19T14:28:30;22.10;95.20
62581;DHT22;48640;48.770;9.148;2022-08-19T14:30:58;22.10;94.60
62581;DHT22;48640;48.770;9.148;2022-08-19T14:33:25;22.20;94.70
62581;DHT22;48640;48.770;9.148;2022-08-19T14:35:52;22.20;94.80
62581;DHT22;48640;48.770;9.148;2022-08-19T14:38:19;22.20;94.80
62581;DHT22;48640;48.770;9.148;2022-08-19T14:40:46;22.30;94.50
62581;DHT22;48640;48.770;9.148;2022-08-19T14:43:14;22.30;94.20
62581;DHT22;48640;48.770;9.148;2022-08-19T14:45:43;22.50;93.90
62581;DHT22;48640;48.770;9.148;2022-08-19T14:48:11;22.60;94.10
62581;DHT22;48640;48.770;9.148;2022-08-19T14:50:38;22.70;93.90
62581;DHT22;48640;48.770;9.148;2022-08-19T14:53:07;22.70;93.60
62581;DHT22;48640;48.770;9.148;2022-08-19T14:55:34;22.80;93.20
62581;DHT22;48640;48.770;9.148;2022-08-19T14:58:01;22.80;92.30
62581;DHT22;48640;48.770;9.148;2022-08-19T15:00:28;22.70;92.50
62581;DHT22;48640;48.770;9.148;2022-08-19T15:02:55;22.70;92.50
62581;DHT22;48640;48.770;9.148;2022-08-19T15:05:23;22.70;92.50
62581;DHT22;48640;48.770;9.148;2022-08-19T15:07:50;22.70;92.50
62581;DHT22;48640;48.770;9.148;2022-08-19T15:10:17;22.70;92.30
62581;DHT22;48640;48.770;9.148;2022-08-19T15:12:44;22.80;91.90
62581;DHT22;48640;48.770;9.148;2022-08-19T15:15:13;22.80;91.80
62581;DHT22;48640;48.770;9.148;2022-08-19T15:17:43;22.90;91.60
62581;DHT22;48640;48.770;9.148;2022-08-19T15:20:12;23.00;91.00
62581;DHT22;48640;48.770;9.148;2022-08-19T15:22:40;23.00;90.30
62581;DHT22;48640;48.770;9.148;2022-08-19T15:25:10;23.20;90.20
62581;DHT22;48640;48.770;9.148;2022-08-19T15:27:37;23.20;89.30
62581;DHT22;48640;48.770;9.148;2022-08-19T15:30:06;23.10;89.40
62581;DHT22;48640;48.770;9.148;2022-08-19T15:32:33;23.10;90.10
62581;DHT22;48640;48.770;9.148;2022-08-19T15:35:01;23.10;90.00
62581;DHT22;48640;48.770;9.148;2022-08-19T15:37:28;23.20;90.10
62581;DHT22;48640;48.770;9.148;2022-08-19T15:39:56;23.10;89.90